sensor_id;sensor_type;location;lat;lon;timestamp;P1;durP1;ratioP1;P2;durP2;ratioP2
13425;SDS011;6785;57.918;12.530;2022-07-24T00:01:55;3.53;;;2.57;;
13425;SDS011;6785;57.918;12.530;2022-07-24T00:04:22;2.90;;;2.70;;
13425;SDS011;6785;57.918;12.530;2022-07-24T00:06:49;2.40;;;2.20;;
13425;SDS011;6785;57.918;12.530;2022-07-24T00:09:16;2.50;;;2.30;;
13425;SDS011;6785;57.918;12.530;2022-07-24T00:11:43;3.50;;;2.83;;
13425;SDS011;6785;57.918;12.530;2022-07-24T00:14:11;2.53;;;2.33;;
13425;SDS011;6785;57.918;12.530;2022-07-24T00:16:38;2.43;;;2.23;;
13425;SDS011;6785;57.918;12.530;2022-07-24T00:19:05;2.80;;;2.60;;
13425;SDS011;6785;57.918;12.530;2022-07-24T00:21:32;2.80;;;2.60;;
13425;SDS011;6785;57.918;12.530;2022-07-24T00:23:59;3.07;;;2.77;;
13425;SDS011;6785;57.918;12.530;2022-07-24T00:26:26;2.70;;;2.50;;
13425;SDS011;6785;57.918;12.530;2022-07-24T00:28:53;4.30;;;2.97;;
13425;SDS011;6785;57.918;12.530;2022-07-24T00:31:21;6.90;;;3.50;;
13425;SDS011;6785;57.918;12.530;2022-07-24T00:33:48;5.97;;;3.27;;
13425;SDS011;6785;57.918;12.530;2022-07-24T00:36:15;5.60;;;3.30;;
13425;SDS011;6785;57.918;12.530;2022-07-24T00:38:42;8.03;;;3.27;;
13425;SDS011;6785;57.918;12.530;2022-07-24T00:41:09;6.90;;;3.40;;
13425;SDS011;6785;57.918;12.530;2022-07-24T00:46:29;3.47;;;2.70;;
13425;SDS011;6785;57.918;12.530;2022-07-24T00:48:56;5.20;;;3.17;;
13425;SDS011;6785;57.918;12.530;2022-07-24T00:51:23;6.80;;;3.33;;
13425;SDS011;6785;57.918;12.530;2022-07-24T00:53:51;5.97;;;2.97;;
13425;SDS011;6785;57.918;12.530;2022-07-24T00:56:18;8.57;;;3.03;;
13425;SDS011;6785;57.918;12.530;2022-07-24T00:58:45;3.27;;;2.97;;
13425;SDS011;6785;57.918;12.530;2022-07-24T01:01:12;9.27;;;2.97;;
13425;SDS011;6785;57.918;12.530;2022-07-24T01:03:40;4.77;;;2.83;;
13425;SDS011;6785;57.918;12.530;2022-07-24T01:06:08;5.30;;;2.80;;
13425;SDS011;6785;57.918;12.530;2022-07-24T01:08:35;8.13;;;3.30;;
13425;SDS011;6785;57.918;12.530;2022-07-24T01:11:02;12.33;;;4.13;;
13425;SDS011;6785;57.918;12.530;2022-07-24T01:13:30;8.30;;;2.93;;
13425;SDS011;6785;57.918;12.530;2022-07-24T01:15:57;7.90;;;2.50;;
13425;SDS011;6785;57.918;12.530;2022-07-24T01:18:24;10.57;;;3.00;;
13425;SDS011;6785;57.918;12.530;2022-07-24T01:20:53;5.20;;;2.83;;
13425;SDS011;6785;57.918;12.530;2022-07-24T01:23:20;5.50;;;2.97;;
13425;SDS011;6785;57.918;12.530;2022-07-24T01:25:47;7.97;;;2.40;;
13425;SDS011;6785;57.918;12.530;2022-07-24T01:28:14;8.13;;;2.93;;
13425;SDS011;6785;57.918;12.530;2022-07-24T01:30:42;8.50;;;2.93;;
13425;SDS011;6785;57.918;12.530;2022-07-24T01:33:09;6.20;;;2.70;;
13425;SDS011;6785;57.918;12.530;2022-07-24T01:35:36;11.63;;;2.80;;
13425;SDS011;6785;57.918;12.530;2022-07-24T01:38:04;6.93;;;2.80;;
13425;SDS011;6785;57.918;12.530;2022-07-24T01:40:31;4.20;;;2.57;;
13425;SDS011;6785;57.918;12.530;2022-07-24T01:42:58;10.40;;;2.97;;
13425;SDS011;6785;57.918;12.530;2022-07-24T01:45:25;5.40;;;2.53;;
13425;SDS011;6785;57.918;12.530;2022-07-24T01:47:52;5.43;;;2.40;;
13425;SDS011;6785;57.918;12.530;2022-07-24T01:50:19;4.97;;;2.77;;
13425;SDS011;6785;57.918;12.530;2022-07-24T01:52:46;6.20;;;2.83;;
13425;SDS011;6785;57.918;12.530;2022-07-24T01:55:14;5.10;;;2.60;;
13425;SDS011;6785;57.918;12.530;2022-07-24T01:57:41;8.73;;;3.27;;
13425;SDS011;6785;57.918;12.530;2022-07-24T02:00:09;4.73;;;2.43;;
13425;SDS011;6785;57.918;12.530;2022-07-24T02:02:37;7.60;;;2.50;;
13425;SDS011;6785;57.918;12.530;2022-07-24T02:05:05;5.63;;;2.47;;
13425;SDS011;6785;57.918;12.530;2022-07-24T02:07:33;7.17;;;2.90;;
13425;SDS011;6785;57.918;12.530;2022-07-24T02:10:00;7.33;;;2.60;;
13425;SDS011;6785;57.918;12.530;2022-07-24T02:12:29;9.90;;;2.63;;
13425;SDS011;6785;57.918;12.530;2022-07-24T02:14:56;9.07;;;2.50;;
13425;SDS011;6785;57.918;12.530;2022-07-24T02:17:23;7.60;;;2.63;;
13425;SDS011;6785;57.918;12.530;2022-07-24T02:19:50;6.60;;;2.67;;
13425;SDS011;6785;57.918;12.530;2022-07-24T02:22:17;9.80;;;3.00;;
13425;SDS011;6785;57.918;12.530;2022-07-24T02:24:43;8.23;;;2.47;;
13425;SDS011;6785;57.918;12.530;2022-07-24T02:27:10;7.83;;;2.57;;
13425;SDS011;6785;57.918;12.530;2022-07-24T02:29:39;5.03;;;2.47;;
13425;SDS011;6785;57.918;12.530;2022-07-24T02:32:06;9.90;;;2.90;;
13425;SDS011;6785;57.918;12.530;2022-07-24T02:34:33;3.60;;;2.83;;
13425;SDS011;6785;57.918;12.530;2022-07-24T02:37:00;3.73;;;2.30;;
13425;SDS011;6785;57.918;12.530;2022-07-24T02:39:27;7.97;;;2.77;;
13425;SDS011;6785;57.918;12.530;2022-07-24T02:41:54;4.13;;;2.20;;
13425;SDS011;6785;57.918;12.530;2022-07-24T02:44:20;5.10;;;2.60;;
13425;SDS011;6785;57.918;12.530;2022-07-24T02:46:48;6.57;;;2.30;;
13425;SDS011;6785;57.918;12.530;2022-07-24T02:49:15;6.63;;;2.50;;
13425;SDS011;6785;57.918;12.530;2022-07-24T02:51:42;8.90;;;2.77;;
13425;SDS011;6785;57.918;12.530;2022-07-24T02:54:10;5.43;;;2.40;;
13425;SDS011;6785;57.918;12.530;2022-07-24T02:56:36;5.40;;;2.27;;
13425;SDS011;6785;57.918;12.530;2022-07-24T02:59:03;7.90;;;2.37;;
13425;SDS011;6785;57.918;12.530;2022-07-24T03:01:30;8.10;;;2.70;;
13425;SDS011;6785;57.918;12.530;2022-07-24T03:03:58;4.53;;;2.43;;
13425;SDS011;6785;57.918;12.530;2022-07-24T03:06:25;6.87;;;2.70;;
13425;SDS011;6785;57.918;12.530;2022-07-24T03:08:52;5.50;;;2.60;;
13425;SDS011;6785;57.918;12.530;2022-07-24T03:11:19;5.00;;;2.73;;
13425;SDS011;6785;57.918;12.530;2022-07-24T03:13:46;4.97;;;2.40;;
13425;SDS011;6785;57.918;12.530;2022-07-24T03:16:13;3.43;;;2.47;;
13425;SDS011;6785;57.918;12.530;2022-07-24T03:18:41;9.90;;;2.73;;
13425;SDS011;6785;57.918;12.530;2022-07-24T03:21:12;4.07;;;2.47;;
13425;SDS011;6785;57.918;12.530;2022-07-24T03:23:39;3.93;;;2.60;;
13425;SDS011;6785;57.918;12.530;2022-07-24T03:26:06;6.77;;;2.80;;
13425;SDS011;6785;57.918;12.530;2022-07-24T03:28:34;5.07;;;2.60;;
13425;SDS011;6785;57.918;12.530;2022-07-24T03:31:01;7.37;;;2.87;;
13425;SDS011;6785;57.918;12.530;2022-07-24T03:33:28;6.53;;;2.77;;
13425;SDS011;6785;57.918;12.530;2022-07-24T03:35:55;4.20;;;2.80;;
13425;SDS011;6785;57.918;12.530;2022-07-24T03:38:23;4.83;;;2.40;;
13425;SDS011;6785;57.918;12.530;2022-07-24T03:40:50;8.53;;;2.83;;
13425;SDS011;6785;57.918;12.530;2022-07-24T03:43:17;7.10;;;2.40;;
13425;SDS011;6785;57.918;12.530;2022-07-24T03:45:44;3.90;;;2.43;;
13425;SDS011;6785;57.918;12.530;2022-07-24T03:48:11;7.27;;;2.77;;
13425;SDS011;6785;57.918;12.530;2022-07-24T03:50:38;6.13;;;2.40;;
13425;SDS011;6785;57.918;12.530;2022-07-24T03:53:05;8.20;;;2.50;;
13425;SDS011;6785;57.918;12.530;2022-07-24T03:55:33;7.27;;;2.57;;
13425;SDS011;6785;57.918;12.530;2022-07-24T03:58:01;4.00;;;2.90;;
13425;SDS011;6785;57.918;12.530;2022-07-24T04:00:27;3.77;;;2.90;;
13425;SDS011;6785;57.918;12.530;2022-07-24T04:02:54;3.53;;;2.70;;
13425;SDS011;6785;57.918;12.530;2022-07-24T04:05:21;6.97;;;3.00;;
13425;SDS011;6785;57.918;12.530;2022-07-24T04:07:48;4.17;;;2.97;;
13425;SDS011;6785;57.918;12.530;2022-07-24T04:10:15;4.97;;;2.90;;
13425;SDS011;6785;57.918;12.530;2022-07-24T04:12:43;5.93;;;2.80;;
13425;SDS011;6785;57.918;12.530;2022-07-24T04:15:10;5.53;;;2.50;;
13425;SDS011;6785;57.918;12.530;2022-07-24T04:17:38;8.73;;;3.03;;
13425;SDS011;6785;57.918;12.530;2022-07-24T04:20:06;5.87;;;2.80;;
13425;SDS011;6785;57.918;12.530;2022-07-24T04:22:34;6.07;;;2.97;;
13425;SDS011;6785;57.918;12.530;2022-07-24T04:25:01;6.47;;;2.70;;
13425;SDS011;6785;57.918;12.530;2022-07-24T04:27:28;6.90;;;2.90;;
13425;SDS011;6785;57.918;12.530;2022-07-24T04:29:56;7.03;;;2.70;;
13425;SDS011;6785;57.918;12.530;2022-07-24T04:32:24;8.97;;;2.97;;
13425;SDS011;6785;57.918;12.530;2022-07-24T04:34:50;3.07;;;2.70;;
13425;SDS011;6785;57.918;12.530;2022-07-24T04:37:17;7.23;;;2.73;;
13425;SDS011;6785;57.918;12.530;2022-07-24T04:39:44;6.03;;;2.80;;
13425;SDS011;6785;57.918;12.530;2022-07-24T04:42:11;5.33;;;2.80;;
13425;SDS011;6785;57.918;12.530;2022-07-24T04:44:38;5.77;;;2.80;;
13425;SDS011;6785;57.918;12.530;2022-07-24T04:47:06;3.83;;;2.80;;
13425;SDS011;6785;57.918;12.530;2022-07-24T04:49:33;6.50;;;2.93;;
13425;SDS011;6785;57.918;12.530;2022-07-24T04:52:00;4.73;;;2.53;;
13425;SDS011;6785;57.918;12.530;2022-07-24T04:54:27;6.27;;;2.50;;
13425;SDS011;6785;57.918;12.530;2022-07-24T04:56:54;3.97;;;2.47;;
13425;SDS011;6785;57.918;12.530;2022-07-24T04:59:21;7.83;;;2.87;;
13425;SDS011;6785;57.918;12.530;2022-07-24T05:01:48;4.57;;;2.30;;
13425;SDS011;6785;57.918;12.530;2022-07-24T05:04:16;6.80;;;2.57;;
13425;SDS011;6785;57.918;12.530;2022-07-24T05:06:43;2.53;;;2.10;;
13425;SDS011;6785;57.918;12.530;2022-07-24T05:09:11;8.13;;;2.53;;
13425;SDS011;6785;57.918;12.530;2022-07-24T05:11:38;5.43;;;2.73;;
13425;SDS011;6785;57.918;12.530;2022-07-24T05:14:05;2.90;;;2.27;;
13425;SDS011;6785;57.918;12.530;2022-07-24T05:16:32;6.20;;;2.20;;
13425;SDS011;6785;57.918;12.530;2022-07-24T05:18:59;4.77;;;2.10;;
13425;SDS011;6785;57.918;12.530;2022-07-24T05:21:27;3.80;;;2.07;;
13425;SDS011;6785;57.918;12.530;2022-07-24T05:23:54;6.77;;;2.60;;
13425;SDS011;6785;57.918;12.530;2022-07-24T05:26:21;5.17;;;2.60;;
13425;SDS011;6785;57.918;12.530;2022-07-24T05:28:48;4.00;;;2.30;;
13425;SDS011;6785;57.918;12.530;2022-07-24T05:31:16;3.17;;;2.20;;
13425;SDS011;6785;57.918;12.530;2022-07-24T05:33:42;6.10;;;2.63;;
13425;SDS011;6785;57.918;12.530;2022-07-24T05:36:10;4.27;;;2.47;;
13425;SDS011;6785;57.918;12.530;2022-07-24T05:38:38;5.17;;;2.37;;
13425;SDS011;6785;57.918;12.530;2022-07-24T05:41:05;3.97;;;2.20;;
13425;SDS011;6785;57.918;12.530;2022-07-24T05:43:32;7.67;;;2.00;;
13425;SDS011;6785;57.918;12.530;2022-07-24T05:45:59;3.73;;;2.30;;
13425;SDS011;6785;57.918;12.530;2022-07-24T05:48:26;3.67;;;2.20;;
13425;SDS011;6785;57.918;12.530;2022-07-24T05:50:53;3.23;;;2.00;;
13425;SDS011;6785;57.918;12.530;2022-07-24T05:53:19;3.90;;;2.30;;
13425;SDS011;6785;57.918;12.530;2022-07-24T05:55:48;2.27;;;2.03;;
13425;SDS011;6785;57.918;12.530;2022-07-24T05:58:15;3.73;;;1.97;;
13425;SDS011;6785;57.918;12.530;2022-07-24T06:00:41;5.03;;;2.13;;
13425;SDS011;6785;57.918;12.530;2022-07-24T06:03:09;3.53;;;2.10;;
13425;SDS011;6785;57.918;12.530;2022-07-24T06:05:36;3.10;;;1.80;;
13425;SDS011;6785;57.918;12.530;2022-07-24T06:08:03;2.90;;;2.20;;
13425;SDS011;6785;57.918;12.530;2022-07-24T06:10:31;3.40;;;1.70;;
13425;SDS011;6785;57.918;12.530;2022-07-24T06:12:59;5.37;;;1.63;;
13425;SDS011;6785;57.918;12.530;2022-07-24T06:15:26;5.80;;;2.20;;
13425;SDS011;6785;57.918;12.530;2022-07-24T06:17:54;2.10;;;1.90;;
13425;SDS011;6785;57.918;12.530;2022-07-24T06:20:21;3.80;;;2.10;;
13425;SDS011;6785;57.918;12.530;2022-07-24T06:22:48;5.73;;;1.73;;
13425;SDS011;6785;57.918;12.530;2022-07-24T06:25:15;5.63;;;1.90;;
13425;SDS011;6785;57.918;12.530;2022-07-24T06:27:42;3.77;;;1.90;;
13425;SDS011;6785;57.918;12.530;2022-07-24T06:30:15;2.60;;;1.60;;
13425;SDS011;6785;57.918;12.530;2022-07-24T06:32:44;4.00;;;2.00;;
13425;SDS011;6785;57.918;12.530;2022-07-24T06:35:11;6.23;;;1.93;;
13425;SDS011;6785;57.918;12.530;2022-07-24T06:37:38;6.57;;;2.10;;
13425;SDS011;6785;57.918;12.530;2022-07-24T06:40:06;4.80;;;1.80;;
13425;SDS011;6785;57.918;12.530;2022-07-24T06:42:34;4.53;;;2.20;;
13425;SDS011;6785;57.918;12.530;2022-07-24T06:45:02;3.30;;;1.80;;
13425;SDS011;6785;57.918;12.530;2022-07-24T06:47:31;3.07;;;1.90;;
13425;SDS011;6785;57.918;12.530;2022-07-24T06:49:58;4.23;;;1.90;;
13425;SDS011;6785;57.918;12.530;2022-07-24T06:52:25;5.10;;;2.40;;
13425;SDS011;6785;57.918;12.530;2022-07-24T06:54:52;3.13;;;2.00;;
13425;SDS011;6785;57.918;12.530;2022-07-24T06:57:19;3.80;;;2.00;;
13425;SDS011;6785;57.918;12.530;2022-07-24T06:59:46;2.67;;;1.50;;
13425;SDS011;6785;57.918;12.530;2022-07-24T07:02:13;4.83;;;2.10;;
13425;SDS011;6785;57.918;12.530;2022-07-24T07:04:41;8.20;;;2.17;;
13425;SDS011;6785;57.918;12.530;2022-07-24T07:07:08;3.93;;;1.90;;
13425;SDS011;6785;57.918;12.530;2022-07-24T07:09:34;3.40;;;1.97;;
13425;SDS011;6785;57.918;12.530;2022-07-24T07:12:02;4.37;;;1.87;;
13425;SDS011;6785;57.918;12.530;2022-07-24T07:14:29;4.13;;;1.80;;
13425;SDS011;6785;57.918;12.530;2022-07-24T07:16:56;4.90;;;2.30;;
13425;SDS011;6785;57.918;12.530;2022-07-24T07:19:23;1.80;;;1.40;;
13425;SDS011;6785;57.918;12.530;2022-07-24T07:21:51;3.67;;;1.80;;
13425;SDS011;6785;57.918;12.530;2022-07-24T07:24:18;5.03;;;1.70;;
13425;SDS011;6785;57.918;12.530;2022-07-24T07:26:45;5.97;;;1.93;;
13425;SDS011;6785;57.918;12.530;2022-07-24T07:29:12;3.57;;;1.80;;
13425;SDS011;6785;57.918;12.530;2022-07-24T07:31:39;3.63;;;1.90;;
13425;SDS011;6785;57.918;12.530;2022-07-24T07:34:06;7.07;;;1.97;;
13425;SDS011;6785;57.918;12.530;2022-07-24T07:36:33;5.93;;;1.90;;
13425;SDS011;6785;57.918;12.530;2022-07-24T07:39:01;3.70;;;1.77;;
13425;SDS011;6785;57.918;12.530;2022-07-24T07:41:29;4.83;;;2.10;;
13425;SDS011;6785;57.918;12.530;2022-07-24T07:43:56;1.50;;;1.40;;
13425;SDS011;6785;57.918;12.530;2022-07-24T07:46:23;2.37;;;1.50;;
13425;SDS011;6785;57.918;12.530;2022-07-24T07:48:50;4.97;;;2.10;;
13425;SDS011;6785;57.918;12.530;2022-07-24T07:51:17;5.90;;;1.63;;
13425;SDS011;6785;57.918;12.530;2022-07-24T07:53:45;4.10;;;1.73;;
13425;SDS011;6785;57.918;12.530;2022-07-24T07:56:15;4.70;;;1.80;;
13425;SDS011;6785;57.918;12.530;2022-07-24T07:58:42;6.27;;;1.80;;
13425;SDS011;6785;57.918;12.530;2022-07-24T08:01:09;4.87;;;1.83;;
13425;SDS011;6785;57.918;12.530;2022-07-24T08:03:36;4.13;;;1.40;;
13425;SDS011;6785;57.918;12.530;2022-07-24T08:06:03;3.87;;;1.60;;
13425;SDS011;6785;57.918;12.530;2022-07-24T08:08:30;1.73;;;1.53;;
13425;SDS011;6785;57.918;12.530;2022-07-24T08:10:57;3.53;;;1.80;;
13425;SDS011;6785;57.918;12.530;2022-07-24T08:13:25;7.27;;;1.90;;
13425;SDS011;6785;57.918;12.530;2022-07-24T08:15:52;3.93;;;2.03;;
13425;SDS011;6785;57.918;12.530;2022-07-24T08:18:19;2.90;;;1.60;;
13425;SDS011;6785;57.918;12.530;2022-07-24T08:20:46;10.50;;;1.83;;
13425;SDS011;6785;57.918;12.530;2022-07-24T08:23:13;3.27;;;1.73;;
13425;SDS011;6785;57.918;12.530;2022-07-24T08:25:40;4.07;;;1.90;;
13425;SDS011;6785;57.918;12.530;2022-07-24T08:28:07;2.20;;;1.80;;
13425;SDS011;6785;57.918;12.530;2022-07-24T08:30:35;2.00;;;1.50;;
13425;SDS011;6785;57.918;12.530;2022-07-24T08:33:02;3.23;;;1.90;;
13425;SDS011;6785;57.918;12.530;2022-07-24T08:35:29;4.77;;;1.77;;
13425;SDS011;6785;57.918;12.530;2022-07-24T08:37:56;2.93;;;1.83;;
13425;SDS011;6785;57.918;12.530;2022-07-24T08:40:23;3.63;;;1.80;;
13425;SDS011;6785;57.918;12.530;2022-07-24T08:42:50;4.87;;;1.80;;
13425;SDS011;6785;57.918;12.530;2022-07-24T08:45:17;6.57;;;2.00;;
13425;SDS011;6785;57.918;12.530;2022-07-24T08:47:45;4.33;;;2.00;;
13425;SDS011;6785;57.918;12.530;2022-07-24T08:50:12;3.73;;;1.83;;
13425;SDS011;6785;57.918;12.530;2022-07-24T08:52:41;6.03;;;1.73;;
13425;SDS011;6785;57.918;12.530;2022-07-24T08:55:10;3.57;;;1.87;;
13425;SDS011;6785;57.918;12.530;2022-07-24T08:57:36;2.10;;;1.63;;
13425;SDS011;6785;57.918;12.530;2022-07-24T09:00:05;2.50;;;1.40;;
13425;SDS011;6785;57.918;12.530;2022-07-24T09:02:33;4.53;;;1.70;;
13425;SDS011;6785;57.918;12.530;2022-07-24T09:05:04;2.70;;;1.60;;
13425;SDS011;6785;57.918;12.530;2022-07-24T09:07:32;1.80;;;1.60;;
13425;SDS011;6785;57.918;12.530;2022-07-24T09:09:59;2.77;;;1.60;;
13425;SDS011;6785;57.918;12.530;2022-07-24T09:12:30;4.30;;;1.73;;
13425;SDS011;6785;57.918;12.530;2022-07-24T09:14:58;4.23;;;1.80;;
13425;SDS011;6785;57.918;12.530;2022-07-24T09:17:26;4.80;;;1.73;;
13425;SDS011;6785;57.918;12.530;2022-07-24T09:19:53;5.63;;;1.90;;
13425;SDS011;6785;57.918;12.530;2022-07-24T09:25:10;3.93;;;1.90;;
13425;SDS011;6785;57.918;12.530;2022-07-24T09:27:40;3.30;;;1.63;;
13425;SDS011;6785;57.918;12.530;2022-07-24T09:30:13;2.00;;;1.53;;
13425;SDS011;6785;57.918;12.530;2022-07-24T09:32:50;2.67;;;1.80;;
13425;SDS011;6785;57.918;12.530;2022-07-24T09:35:21;4.70;;;1.90;;
13425;SDS011;6785;57.918;12.530;2022-07-24T09:37:54;4.17;;;1.77;;
13425;SDS011;6785;57.918;12.530;2022-07-24T09:40:21;3.13;;;1.83;;
13425;SDS011;6785;57.918;12.530;2022-07-24T09:42:55;5.07;;;2.00;;
13425;SDS011;6785;57.918;12.530;2022-07-24T09:45:44;4.87;;;1.73;;
13425;SDS011;6785;57.918;12.530;2022-07-24T09:48:21;3.77;;;1.80;;
13425;SDS011;6785;57.918;12.530;2022-07-24T09:50:50;3.83;;;2.00;;
13425;SDS011;6785;57.918;12.530;2022-07-24T09:53:20;6.30;;;1.90;;
13425;SDS011;6785;57.918;12.530;2022-07-24T09:55:56;5.03;;;2.03;;
13425;SDS011;6785;57.918;12.530;2022-07-24T09:58:27;4.23;;;1.90;;
13425;SDS011;6785;57.918;12.530;2022-07-24T10:00:56;3.67;;;2.17;;
13425;SDS011;6785;57.918;12.530;2022-07-24T10:03:26;4.93;;;1.90;;
13425;SDS011;6785;57.918;12.530;2022-07-24T10:05:56;4.37;;;2.23;;
13425;SDS011;6785;57.918;12.530;2022-07-24T10:08:27;2.83;;;2.20;;
13425;SDS011;6785;57.918;12.530;2022-07-24T10:10:55;2.73;;;1.80;;
13425;SDS011;6785;57.918;12.530;2022-07-24T10:13:22;4.43;;;2.10;;
13425;SDS011;6785;57.918;12.530;2022-07-24T10:15:54;3.23;;;2.00;;
13425;SDS011;6785;57.918;12.530;2022-07-24T10:18:53;5.77;;;2.30;;
13425;SDS011;6785;57.918;12.530;2022-07-24T10:21:21;5.53;;;2.10;;
13425;SDS011;6785;57.918;12.530;2022-07-24T10:24:09;3.10;;;2.00;;
13425;SDS011;6785;57.918;12.530;2022-07-24T10:26:44;2.83;;;1.90;;
13425;SDS011;6785;57.918;12.530;2022-07-24T10:29:14;3.57;;;1.90;;
13425;SDS011;6785;57.918;12.530;2022-07-24T10:31:43;3.97;;;1.93;;
13425;SDS011;6785;57.918;12.530;2022-07-24T10:34:13;2.27;;;1.70;;
13425;SDS011;6785;57.918;12.530;2022-07-24T10:36:48;3.33;;;2.00;;
13425;SDS011;6785;57.918;12.530;2022-07-24T10:39:22;3.87;;;2.13;;
13425;SDS011;6785;57.918;12.530;2022-07-24T10:41:59;5.47;;;2.10;;
13425;SDS011;6785;57.918;12.530;2022-07-24T10:44:27;2.10;;;2.00;;
13425;SDS011;6785;57.918;12.530;2022-07-24T10:46:58;2.10;;;1.90;;
13425;SDS011;6785;57.918;12.530;2022-07-24T10:49:36;3.67;;;1.97;;
13425;SDS011;6785;57.918;12.530;2022-07-24T10:52:11;3.43;;;2.00;;
13425;SDS011;6785;57.918;12.530;2022-07-24T10:54:49;2.73;;;2.00;;
13425;SDS011;6785;57.918;12.530;2022-07-24T10:57:46;2.83;;;1.80;;
13425;SDS011;6785;57.918;12.530;2022-07-24T11:00:23;5.00;;;1.70;;
13425;SDS011;6785;57.918;12.530;2022-07-24T11:02:55;3.03;;;2.10;;
13425;SDS011;6785;57.918;12.530;2022-07-24T11:05:24;3.53;;;2.30;;
13425;SDS011;6785;57.918;12.530;2022-07-24T11:10:58;2.30;;;2.10;;
13425;SDS011;6785;57.918;12.530;2022-07-24T11:16:33;3.10;;;2.20;;
13425;SDS011;6785;57.918;12.530;2022-07-24T11:22:03;2.47;;;1.70;;
13425;SDS011;6785;57.918;12.530;2022-07-24T11:24:32;2.95;;;1.85;;
13425;SDS011;6785;57.918;12.530;2022-07-24T11:27:03;3.75;;;1.88;;
13425;SDS011;6785;57.918;12.530;2022-07-24T11:29:32;2.70;;;1.58;;
13425;SDS011;6785;57.918;12.530;2022-07-24T11:32:02;2.83;;;1.80;;
13425;SDS011;6785;57.918;12.530;2022-07-24T11:34:30;2.03;;;1.83;;
13425;SDS011;6785;57.918;12.530;2022-07-24T11:36:58;1.80;;;1.60;;
13425;SDS011;6785;57.918;12.530;2022-07-24T11:39:26;3.33;;;1.77;;
13425;SDS011;6785;57.918;12.530;2022-07-24T11:41:56;3.13;;;1.60;;
13425;SDS011;6785;57.918;12.530;2022-07-24T11:44:25;1.43;;;1.33;;
13425;SDS011;6785;57.918;12.530;2022-07-24T11:46:55;2.93;;;1.60;;
13425;SDS011;6785;57.918;12.530;2022-07-24T11:49:23;3.77;;;1.90;;
13425;SDS011;6785;57.918;12.530;2022-07-24T11:51:51;1.77;;;1.57;;
13425;SDS011;6785;57.918;12.530;2022-07-24T11:54:20;3.60;;;1.47;;
13425;SDS011;6785;57.918;12.530;2022-07-24T11:56:50;2.47;;;1.63;;
13425;SDS011;6785;57.918;12.530;2022-07-24T11:59:21;2.23;;;1.50;;
13425;SDS011;6785;57.918;12.530;2022-07-24T12:01:50;3.27;;;1.70;;
13425;SDS011;6785;57.918;12.530;2022-07-24T12:04:21;2.70;;;1.93;;
13425;SDS011;6785;57.918;12.530;2022-07-24T12:06:49;2.73;;;1.50;;
13425;SDS011;6785;57.918;12.530;2022-07-24T12:09:16;3.58;;;1.60;;
13425;SDS011;6785;57.918;12.530;2022-07-24T12:11:43;2.50;;;1.60;;
13425;SDS011;6785;57.918;12.530;2022-07-24T12:14:13;2.47;;;1.65;;
13425;SDS011;6785;57.918;12.530;2022-07-24T12:16:41;2.85;;;1.65;;
13425;SDS011;6785;57.918;12.530;2022-07-24T12:19:16;2.22;;;1.55;;
13425;SDS011;6785;57.918;12.530;2022-07-24T12:21:45;1.75;;;1.50;;
13425;SDS011;6785;57.918;12.530;2022-07-24T12:24:13;2.97;;;1.73;;
13425;SDS011;6785;57.918;12.530;2022-07-24T12:26:50;1.80;;;1.50;;
13425;SDS011;6785;57.918;12.530;2022-07-24T12:29:19;2.38;;;1.52;;
13425;SDS011;6785;57.918;12.530;2022-07-24T12:31:46;2.00;;;1.70;;
13425;SDS011;6785;57.918;12.530;2022-07-24T12:34:13;5.03;;;1.60;;
13425;SDS011;6785;57.918;12.530;2022-07-24T12:36:41;2.08;;;1.50;;
13425;SDS011;6785;57.918;12.530;2022-07-24T12:39:09;3.28;;;1.80;;
13425;SDS011;6785;57.918;12.530;2022-07-24T12:41:44;2.63;;;1.50;;
13425;SDS011;6785;57.918;12.530;2022-07-24T12:44:12;1.77;;;1.63;;
13425;SDS011;6785;57.918;12.530;2022-07-24T12:46:40;2.88;;;1.70;;
13425;SDS011;6785;57.918;12.530;2022-07-24T12:49:08;4.13;;;1.70;;
13425;SDS011;6785;57.918;12.530;2022-07-24T12:51:48;2.88;;;1.70;;
13425;SDS011;6785;57.918;12.530;2022-07-24T12:54:17;3.35;;;1.80;;
13425;SDS011;6785;57.918;12.530;2022-07-24T12:56:46;1.98;;;1.60;;
13425;SDS011;6785;57.918;12.530;2022-07-24T12:59:24;3.22;;;1.67;;
13425;SDS011;6785;57.918;12.530;2022-07-24T13:01:54;2.67;;;1.67;;
13425;SDS011;6785;57.918;12.530;2022-07-24T13:04:23;2.40;;;1.67;;
13425;SDS011;6785;57.918;12.530;2022-07-24T13:06:52;2.42;;;1.67;;
13425;SDS011;6785;57.918;12.530;2022-07-24T13:09:20;2.00;;;1.63;;
13425;SDS011;6785;57.918;12.530;2022-07-24T13:11:49;2.87;;;1.73;;
13425;SDS011;6785;57.918;12.530;2022-07-24T13:14:17;1.60;;;1.50;;
13425;SDS011;6785;57.918;12.530;2022-07-24T13:16:46;3.60;;;1.70;;
13425;SDS011;6785;57.918;12.530;2022-07-24T13:19:15;1.97;;;1.67;;
13425;SDS011;6785;57.918;12.530;2022-07-24T13:21:43;1.70;;;1.60;;
13425;SDS011;6785;57.918;12.530;2022-07-24T13:24:13;3.37;;;2.00;;
13425;SDS011;6785;57.918;12.530;2022-07-24T13:26:42;4.40;;;1.80;;
13425;SDS011;6785;57.918;12.530;2022-07-24T13:29:09;5.67;;;1.90;;
13425;SDS011;6785;57.918;12.530;2022-07-24T13:31:37;2.30;;;1.60;;
13425;SDS011;6785;57.918;12.530;2022-07-24T13:34:04;2.90;;;2.10;;
13425;SDS011;6785;57.918;12.530;2022-07-24T13:36:32;4.17;;;2.97;;
13425;SDS011;6785;57.918;12.530;2022-07-24T13:38:59;8.87;;;5.67;;
13425;SDS011;6785;57.918;12.530;2022-07-24T13:41:28;2.73;;;1.67;;
13425;SDS011;6785;57.918;12.530;2022-07-24T13:43:54;1.70;;;1.60;;
13425;SDS011;6785;57.918;12.530;2022-07-24T13:46:21;2.23;;;1.97;;
13425;SDS011;6785;57.918;12.530;2022-07-24T13:48:49;3.43;;;1.90;;
13425;SDS011;6785;57.918;12.530;2022-07-24T13:51:17;4.60;;;1.70;;
13425;SDS011;6785;57.918;12.530;2022-07-24T13:53:44;3.70;;;2.03;;
13425;SDS011;6785;57.918;12.530;2022-07-24T13:56:11;3.43;;;1.90;;
13425;SDS011;6785;57.918;12.530;2022-07-24T13:58:40;2.53;;;1.70;;
13425;SDS011;6785;57.918;12.530;2022-07-24T14:01:08;4.07;;;1.90;;
13425;SDS011;6785;57.918;12.530;2022-07-24T14:03:38;2.00;;;1.80;;
13425;SDS011;6785;57.918;12.530;2022-07-24T14:06:06;1.90;;;1.80;;
13425;SDS011;6785;57.918;12.530;2022-07-24T14:08:34;2.33;;;2.10;;
13425;SDS011;6785;57.918;12.530;2022-07-24T14:11:01;2.77;;;2.00;;
13425;SDS011;6785;57.918;12.530;2022-07-24T14:13:29;5.30;;;2.03;;
13425;SDS011;6785;57.918;12.530;2022-07-24T14:15:57;3.90;;;2.27;;
13425;SDS011;6785;57.918;12.530;2022-07-24T14:18:24;2.20;;;1.97;;
13425;SDS011;6785;57.918;12.530;2022-07-24T14:20:51;4.57;;;2.50;;
13425;SDS011;6785;57.918;12.530;2022-07-24T14:23:18;4.03;;;2.30;;
13425;SDS011;6785;57.918;12.530;2022-07-24T14:25:45;3.07;;;2.50;;
13425;SDS011;6785;57.918;12.530;2022-07-24T14:28:12;3.20;;;2.30;;
13425;SDS011;6785;57.918;12.530;2022-07-24T14:30:39;5.33;;;2.43;;
13425;SDS011;6785;57.918;12.530;2022-07-24T14:33:08;3.47;;;2.27;;
13425;SDS011;6785;57.918;12.530;2022-07-24T14:35:35;4.20;;;2.30;;
13425;SDS011;6785;57.918;12.530;2022-07-24T14:38:02;4.13;;;2.47;;
13425;SDS011;6785;57.918;12.530;2022-07-24T14:40:29;3.30;;;2.23;;
13425;SDS011;6785;57.918;12.530;2022-07-24T14:42:56;4.37;;;2.30;;
13425;SDS011;6785;57.918;12.530;2022-07-24T14:45:23;2.57;;;2.10;;
13425;SDS011;6785;57.918;12.530;2022-07-24T14:47:49;3.03;;;2.37;;
13425;SDS011;6785;57.918;12.530;2022-07-24T14:50:18;3.30;;;2.30;;
13425;SDS011;6785;57.918;12.530;2022-07-24T14:52:45;4.70;;;2.50;;
13425;SDS011;6785;57.918;12.530;2022-07-24T14:55:12;2.40;;;2.20;;
13425;SDS011;6785;57.918;12.530;2022-07-24T14:57:39;4.27;;;2.47;;
13425;SDS011;6785;57.918;12.530;2022-07-24T15:00:07;3.47;;;2.17;;
13425;SDS011;6785;57.918;12.530;2022-07-24T15:02:34;6.30;;;2.50;;
13425;SDS011;6785;57.918;12.530;2022-07-24T15:05:01;4.20;;;2.53;;
13425;SDS011;6785;57.918;12.530;2022-07-24T15:07:30;5.33;;;2.37;;
13425;SDS011;6785;57.918;12.530;2022-07-24T15:09:57;5.60;;;2.50;;